METAR Data
IDs: Format: Raw Decoded Include TAF

Data at: 0215 UTC 25 Feb 2021

EGSS 250150Z AUTO 22012KT 9999 OVC034 12/07 Q1021